Latest Weather Observations for Cairns

IDQ60801

Issued at 5:51 pm EST Wednesday 26 June 2019 (issued every 10 minutes, with the page automatically refreshed every 10 minutes)

About weather observations | Map of weather stations | Latest weather observations for QLD | Other Formats
Station Details ID: 031011 Name: CAIRNS AERO Lat: -16.87 Lon: 145.75 Height: 2.22 m
Data from the previous 72 hours. | See also: Recent months at Cairns
Date/Time
EST
Temp
°C
App
Temp
°C
Dew
Point
°C
Rel
Hum
%
Delta-T
°C
Wind Press
QNH
hPa
Press
MSL
hPa
Rain since
9am
mm
Dir  Spd
km/h
Gust
km/h
Spd
kts
Gust
kts
26/05:30pm 22.5 18.8 12.7 54 5.6 SE 24 32 13 17 1017.2 1017.2 0.0
26/05:00pm 23.0 20.1 12.9 53 5.8 SE 20 30 11 16 1016.9 1016.9 0.0
26/04:30pm 23.4 19.1 13.3 53 5.8 SE 28 37 15 20 1016.8 1016.8 0.0
26/04:00pm 23.7 19.6 13.8 53 5.8 SE 28 33 15 18 1016.4 1016.4 0.0
26/03:30pm 24.1 20.7 13.6 52 6.1 SE 24 32 13 17 1016.2 1016.2 0.0
26/03:00pm 24.3 21.2 14.4 54 5.9 SE 24 32 13 17 1016.3 1016.3 0.0
26/02:30pm 24.4 20.8 14.2 53 6.0 SE 26 33 14 18 1016.6 1016.6 0.0
26/02:00pm 25.0 21.1 14.5 52 6.2 SE 28 35 15 19 1016.8 1016.8 0.0
26/01:30pm 24.4 22.3 15.1 56 5.6 SSE 20 28 11 15 1017.2 1017.2 0.0
26/01:00pm 23.9 21.9 14.9 57 5.4 S 19 28 10 15 1017.7 1017.7 0.0
26/12:30pm 23.5 20.8 14.5 57 5.3 SSE 22 30 12 16 1018.2 1018.2 0.0
26/12:00pm 22.8 20.1 15.6 64 4.3 SSE 24 32 13 17 1018.5 1018.5 0.0
26/11:30am 22.9 21.0 15.7 64 4.3 SSE 20 32 11 17 1018.9 1018.9 0.0
26/11:00am 22.8 21.0 15.9 65 4.2 SSE 20 33 11 18 1019.3 1019.3 0.0
26/10:30am 22.9 20.0 16.0 65 4.2 SSE 26 35 14 19 1019.5 1019.5 0.0
26/10:00am 23.2 20.8 16.5 66 4.1 SSE 24 33 13 18 1019.7 1019.7 0.0
26/09:30am 22.5 19.8 16.5 69 3.7 SSE 26 37 14 20 1019.7 1019.7 0.0
26/09:00am 21.9 19.3 16.8 73 3.1 SSE 26 35 14 19 1019.8 1019.8 0.0
26/08:30am 21.6 18.6 16.8 74 2.9 SSE 28 37 15 20 1019.2 1019.2 0.0
26/08:00am 21.2 18.9 16.6 75 2.8 SSE 24 35 13 19 1019.1 1019.1 0.0
26/07:30am 21.0 19.4 16.6 76 2.7 SSE 20 32 11 17 1018.6 1018.6 0.0
26/07:00am 20.8 20.1 16.4 76 2.6 SSE 15 26 8 14 1018.2 1018.2 0.0
26/06:30am 20.8 19.2 16.4 76 2.7 SSE 20 28 11 15 1018.0 1018.0 0.0
26/06:00am 20.7 19.3 16.5 77 2.5 S 19 30 10 16 1017.8 1017.8 0.0
26/05:30am 20.7 19.3 16.5 77 2.5 SSE 19 30 10 16 1017.7 1017.7 0.0
26/05:00am 20.8 19.4 16.6 77 2.5 S 19 32 10 17 1017.6 1017.6 0.0
26/04:30am 20.7 19.0 16.3 76 2.6 SSE 20 33 11 18 1017.4 1017.4 0.0
26/04:00am 20.7 19.1 16.1 75 2.8 SSE 19 30 10 16 1017.4 1017.4 0.0
26/03:30am 20.8 19.5 15.8 73 3.0 S 17 30 9 16 1017.5 1017.5 0.0
26/03:00am 20.8 19.1 15.8 73 3.0 S 19 30 10 16 1017.4 1017.4 0.0
26/02:30am 20.7 19.0 15.7 73 3.0 S 19 30 10 16 1017.6 1017.6 0.0
26/02:00am 20.4 18.6 15.4 73 3.0 S 19 30 10 16 1017.8 1017.8 0.0
26/01:30am 20.4 18.4 15.4 73 3.0 S 20 32 11 17 1018.1 1018.1 0.0
26/01:00am 20.6 18.8 15.6 73 3.0 SSE 19 28 10 15 1018.4 1018.4 0.0
26/12:30am 20.6 19.3 15.8 74 2.9 S 17 30 9 16 1018.4 1018.4 0.0
26/12:00am 20.4 18.7 15.8 75 2.7 SSE 19 30 10 16 1018.6 1018.6 0.0
 
Date/Time
EST
Temp
°C
App
Temp
°C
Dew
Point
°C
Rel
Hum
%
Delta-T
°C
Wind Press
QNH
hPa
Press
MSL
hPa
Rain since
9am
mm
Dir  Spd
km/h
Gust
km/h
Spd
kts
Gust
kts
25/11:30pm 20.8 19.1 16.2 75 2.8 SSE 20 33 11 18 1018.9 1018.9 0.0
25/11:00pm 20.7 18.9 16.1 75 2.8 S 20 33 11 18 1018.9 1018.9 0.0
25/10:30pm 20.5 19.4 16.3 77 2.5 S 17 30 9 16 1019.1 1019.1 0.0
25/10:00pm 20.6 18.6 16.4 77 2.5 S 22 35 12 19 1019.1 1019.1 0.0
25/09:30pm 20.4 18.7 16.2 77 2.5 S 20 30 11 16 1019.3 1019.3 0.0
25/09:00pm 20.5 19.0 16.3 77 2.5 S 19 35 10 19 1019.2 1019.2 0.0
25/08:30pm 20.5 19.5 16.7 79 2.3 S 17 33 9 18 1019.2 1019.2 0.0
25/08:00pm 20.7 18.7 16.5 77 2.5 S 22 35 12 19 1018.8 1018.8 0.0
25/07:30pm 20.7 18.7 16.5 77 2.5 S 22 33 12 18 1018.4 1018.4 0.0
25/07:00pm 21.2 18.4 16.4 74 2.9 SSE 26 39 14 21 1018.5 1018.5 0.0
25/06:30pm 21.2 19.6 16.6 75 2.8 S 20 32 11 17 1018.2 1018.2 0.0
25/06:00pm 21.6 18.8 16.3 72 3.2 SSE 26 35 14 19 1018.1 1018.1 0.0
25/05:30pm 21.9 19.4 16.2 70 3.4 SSE 24 35 13 19 1017.8 1017.8 0.0
25/05:00pm 23.9 22.8 16.4 63 4.6 SSE 17 26 9 14 1017.6 1017.6 0.0
25/04:30pm 24.3 21.9 16.3 61 4.9 SE 24 33 13 18 1017.4 1017.4 0.0
25/04:00pm 24.0 19.7 15.5 59 5.1 SE 32 37 17 20 1017.1 1017.1 0.0
25/03:30pm 25.2 21.3 16.4 58 5.4 SE 32 37 17 20 1016.9 1016.9 0.0
25/03:00pm 25.6 21.6 16.7 58 5.5 SE 33 39 18 21 1016.9 1016.9 0.0
25/02:30pm 25.4 21.5 16.5 58 5.5 SE 32 37 17 20 1017.0 1017.0 0.0
25/02:00pm 25.7 21.9 16.8 58 5.5 SE 32 39 17 21 1017.2 1017.2 0.0
25/01:30pm 25.9 23.1 17.3 59 5.4 SE 28 37 15 20 1017.3 1017.3 0.0
25/01:00pm 25.6 22.3 17.0 59 5.3 SE 30 39 16 21 1017.7 1017.7 0.0
25/12:30pm 26.0 22.1 16.5 55 5.9 SE 32 37 17 20 1018.1 1018.1 0.0
25/12:00pm 25.8 22.3 16.4 56 5.8 SE 30 39 16 21 1018.7 1018.7 0.0
25/11:30am 25.5 21.4 16.4 57 5.6 SE 33 44 18 24 1018.9 1018.9 0.0
25/11:00am 25.6 21.6 16.2 56 5.7 SE 32 39 17 21 1019.2 1019.2 0.0
25/10:30am 25.1 23.9 17.6 63 4.7 SSE 20 30 11 16 1019.7 1019.7 0.0
25/10:00am 23.9 22.2 17.2 66 4.1 S 22 32 12 17 1019.9 1019.9 0.0
25/09:30am 22.6 21.1 16.4 68 3.8 SSE 19 30 10 16 1019.9 1019.9 0.0
25/09:00am 22.2 20.6 16.5 70 3.5 S 20 28 11 15 1019.9 1019.9 0.0
25/08:30am 21.5 20.0 16.2 72 3.2 S 19 26 10 14 1019.5 1019.5 0.0
25/08:00am 21.0 19.8 16.0 73 3.0 S 17 26 9 14 1019.3 1019.3 0.0
25/07:30am 19.8 19.4 16.3 80 2.1 SSE 13 20 7 11 1019.1 1019.1 0.0
25/07:00am 17.2 15.8 14.5 84 1.5 SE 15 22 8 12 1018.8 1018.8 0.0
25/06:30am 19.6 18.8 16.1 80 2.1 SSE 15 22 8 12 1018.5 1018.5 0.0
25/06:00am 16.3 14.8 14.1 87 1.2 SE 15 19 8 10 1018.3 1018.3 0.0
25/05:30am 15.8 13.5 14.0 89 1.0 SE 19 24 10 13 1018.0 1018.0 0.0
25/05:00am 16.4 14.1 14.2 87 1.2 ESE 19 24 10 13 1017.7 1017.7 0.0
25/04:30am 16.4 14.1 14.2 87 1.3 ESE 19 22 10 12 1017.7 1017.7 0.0
25/04:00am 16.4 14.5 14.2 87 1.2 SE 17 22 9 12 1017.7 1017.7 0.0
25/03:30am 16.5 14.6 14.2 86 1.3 SE 17 22 9 12 1018.0 1018.0 0.0
25/03:00am 16.6 15.1 14.2 86 1.4 SSE 15 20 8 11 1018.2 1018.2 0.0
25/02:30am 16.3 14.8 14.3 88 1.1 SSE 15 19 8 10 1018.5 1018.5 0.0
25/02:00am 16.4 14.9 14.2 87 1.2 SE 15 17 8 9 1018.6 1018.6 0.0
25/01:30am 16.8 14.6 14.3 85 1.4 SE 19 22 10 12 1018.9 1018.9 0.0
25/01:00am 16.7 14.8 14.2 85 1.4 SE 17 20 9 11 1019.2 1019.2 0.0
25/12:30am 17.4 15.6 14.5 83 1.7 SE 17 22 9 12 1019.3 1019.3 0.0
25/12:00am 17.7 15.5 14.4 81 1.9 SE 19 24 10 13 1019.5 1019.5 0.0
 
Date/Time
EST
Temp
°C
App
Temp
°C
Dew
Point
°C
Rel
Hum
%
Delta-T
°C
Wind Press
QNH
hPa
Press
MSL
hPa
Rain since
9am
mm
Dir  Spd
km/h
Gust
km/h
Spd
kts
Gust
kts
24/11:30pm 17.4 16.8 14.7 84 1.6 SSE 11 15 6 8 1019.7 1019.7 0.0
24/11:00pm 17.7 16.6 14.2 80 2.0 SE 13 19 7 10 1019.7 1019.7 0.0
24/10:30pm 18.6 17.8 14.1 75 2.6 SE 11 15 6 8 1019.8 1019.8 0.0
24/10:00pm 20.0 18.1 14.1 69 3.4 S 17 26 9 14 1019.8 1019.8 0.0
24/09:30pm 19.9 18.4 14.3 70 3.2 S 15 20 8 11 1019.9 1019.9 0.0
24/09:00pm 20.0 18.6 14.4 70 3.2 S 15 28 8 15 1019.8 1019.8 0.0
24/08:30pm 20.1 19.1 14.7 71 3.2 S 13 20 7 11 1019.7 1019.7 0.0
24/08:00pm 20.0 19.5 14.8 72 3.0 S 11 19 6 10 1019.3 1019.3 0.0
24/07:30pm 20.5 19.3 15.1 71 3.2 SSE 15 26 8 14 1018.9 1018.9 0.0
24/07:00pm 20.7 18.5 15.0 70 3.4 SSE 20 32 11 17 1018.4 1018.4 0.0
24/06:30pm 20.8 19.0 15.4 71 3.2 SSE 19 26 10 14 1018.1 1018.1 0.0
24/06:00pm 20.8 19.6 15.1 70 3.4 SSE 15 24 8 13 1017.6 1017.6 0.0
24/05:30pm 21.5 18.9 14.9 66 3.9 SSE 22 30 12 16 1017.2 1017.2 0.0
24/05:00pm 22.6 19.7 15.2 63 4.4 SSE 24 33 13 18 1016.9 1016.9 0.0
24/04:30pm 23.5 20.6 15.0 59 5.1 SE 24 32 13 17 1016.4 1016.4 0.0
24/04:00pm 24.3 21.2 14.4 54 5.9 SE 24 30 13 16 1016.1 1016.1 0.0
24/03:30pm 25.1 22.4 13.6 49 6.7 SE 20 26 11 14 1015.9 1015.9 0.0
24/03:00pm 25.6 23.2 13.8 48 7.0 ESE 19 24 10 13 1015.8 1015.8 0.0
24/02:30pm 25.7 23.0 12.9 45 7.4 ESE 19 26 10 14 1015.8 1015.8 0.0
24/02:00pm 26.0 23.8 13.2 45 7.5 ESE 17 26 9 14 1016.0 1016.0 0.0
24/01:30pm 25.4 22.9 12.3 44 7.5 ESE 17 26 9 14 1016.4 1016.4 0.0
24/01:00pm 25.6 23.6 12.8 45 7.4 SE 15 28 8 15 1016.8 1016.8 0.0
24/12:30pm 25.5 23.0 12.4 44 7.5 SSE 17 26 9 14 1017.3 1017.3 0.0
24/12:00pm 25.4 22.2 11.9 43 7.7 SSE 20 28 11 15 1017.7 1017.7 0.0
24/11:30am 24.2 20.0 9.8 40 7.9 SSE 22 30 12 16 1017.9 1017.9 0.0
24/11:00am 23.9 20.2 10.2 42 7.5 SSE 20 30 11 16 1018.2 1018.2 0.0
24/10:30am 22.8 20.3 11.2 48 6.5 SSE 15 20 8 11 1018.5 1018.5 0.0
24/10:00am 21.7 19.0 11.7 53 5.6 SE 17 22 9 12 1018.6 1018.6 0.0
24/09:30am 21.7 18.9 11.4 52 5.7 SE 17 22 9 12 1018.7 1018.7 0.0
24/09:00am 19.9 19.6 12.7 63 4.0 ESE 6 11 3 6 1018.6 1018.6 0.0
24/08:30am 18.1 17.2 11.2 64 3.7 NNW 7 11 4 6 1018.4 1018.4 0.0
24/08:00am 16.8 15.8 10.9 68 3.2 W 7 9 4 5 1018.0 1018.0 0.0
24/07:30am 15.6 13.1 11.0 74 2.5 SSE 15 22 8 12 1017.8 1017.8 0.0
24/07:00am 13.7 13.3 11.0 84 1.4 W 4 9 2 5 1017.6 1017.6 0.0
24/06:30am 14.9 13.6 11.1 78 2.0 S 9 15 5 8 1017.2 1017.2 0.0
24/06:00am 14.2 13.5 11.4 83 1.5 SW 6 13 3 7 1016.9 1016.9 0.0
24/05:30am 15.6 13.6 11.6 77 2.2 SSE 13 22 7 12 1016.7 1016.7 0.0
24/05:00am 15.1 13.6 11.9 81 1.7 SSE 11 19 6 10 1016.5 1016.5 0.0
24/04:30am 15.8 12.8 12.7 82 1.7 SE 20 24 11 13 1016.3 1016.3 0.0
24/04:00am 15.2 13.0 13.2 88 1.1 SE 17 20 9 11 1016.3 1016.3 0.0
24/03:30am 15.5 13.7 13.3 87 1.2 SE 15 17 8 9 1016.3 1016.3 0.0
24/03:00am 15.3 14.3 13.3 88 1.1 SSE 11 15 6 8 1016.4 1016.4 0.0
24/02:30am 16.5 15.2 13.8 84 1.5 SSE 13 17 7 9 1016.5 1016.5 0.0
24/02:00am 16.3 15.4 13.6 84 1.5 SSE 11 15 6 8 1016.6 1016.6 0.0
24/01:30am 16.9 15.8 14.2 84 1.5 SE 13 17 7 9 1016.9 1016.9 0.0
24/01:00am 16.5 15.5 14.5 88 1.1 SSE 13 17 7 9 1017.0 1017.0 0.0
24/12:30am 16.1 15.7 14.1 88 1.1 SE 9 11 5 6 1017.1 1017.1 0.0
24/12:00am 16.7 16.7 14.2 85 1.4 SSE 7 9 4 5 1017.2 1017.2 0.0
 
Date/Time
EST
Temp
°C
App
Temp
°C
Dew
Point
°C
Rel
Hum
%
Delta-T
°C
Wind Press
QNH
hPa
Press
MSL
hPa
Rain since
9am
mm
Dir  Spd
km/h
Gust
km/h
Spd
kts
Gust
kts
23/11:30pm 17.6 16.6 14.7 83 1.7 ESE 13 17 7 9 1017.4 1017.4 0.0
23/11:00pm 18.7 18.0 14.2 75 2.6 S 11 19 6 10 1017.3 1017.3 0.0
23/10:30pm 19.0 17.9 14.3 74 2.7 S 13 19 7 10 1017.5 1017.5 0.0
23/10:00pm 19.3 17.4 14.3 73 2.9 SSE 17 26 9 14 1017.4 1017.4 0.0
23/09:30pm 19.2 16.9 14.2 73 2.9 SSE 19 24 10 13 1017.5 1017.5 0.0
23/09:00pm 19.3 17.4 14.3 73 2.9 SSE 17 30 9 16 1017.3 1017.3 0.0
23/08:30pm 19.6 17.4 14.4 72 3.0 S 19 26 10 14 1017.1 1017.1 0.0
23/08:00pm 19.9 17.8 14.7 72 3.0 S 19 30 10 16 1016.8 1016.8 0.0
23/07:30pm 19.7 18.1 14.9 74 2.8 SSE 17 26 9 14 1016.5 1016.5 0.0
23/07:00pm 19.5 18.4 15.2 76 2.5 SSE 15 24 8 13 1016.2 1016.2 0.0
23/06:30pm 19.9 18.7 15.1 74 2.8 SSE 15 20 8 11 1015.8 1015.8 0.0
23/06:00pm 20.4 19.6 15.2 72 3.1 S 13 19 7 10 1015.4 1015.4 0.0

Other formats

Comma delimited format used in spreadsheet applications
http://www.bom.gov.au/fwo/IDQ60801/IDQ60801.94287.axf

JavaScript Object Notation format (JSON) in row-major order
http://www.bom.gov.au/fwo/IDQ60801/IDQ60801.94287.json

Data quality

Most of these data are generated automatically and are frequently updated. Quality checks on data are not normally performed. It is possible for incorrect values to appear. Refer to information at About Latest Weather Observations and please check the disclaimer before using these data.